sensor_id;sensor_type;location;lat;lon;timestamp;P1;durP1;ratioP1;P2;durP2;ratioP2
78312;SDS011;67568;47.438;21.408;2023-05-10T00:02:14;7.10;;;2.72;;
78312;SDS011;67568;47.438;21.408;2023-05-10T00:04:41;7.00;;;2.90;;
78312;SDS011;67568;47.438;21.408;2023-05-10T00:07:08;8.40;;;2.80;;
78312;SDS011;67568;47.438;21.408;2023-05-10T00:09:35;9.50;;;3.00;;
78312;SDS011;67568;47.438;21.408;2023-05-10T00:12:02;6.95;;;3.25;;
78312;SDS011;67568;47.438;21.408;2023-05-10T00:14:28;8.65;;;3.20;;
78312;SDS011;67568;47.438;21.408;2023-05-10T00:16:55;7.80;;;3.17;;
78312;SDS011;67568;47.438;21.408;2023-05-10T00:19:22;8.02;;;3.00;;
78312;SDS011;67568;47.438;21.408;2023-05-10T00:21:49;7.80;;;3.08;;
78312;SDS011;67568;47.438;21.408;2023-05-10T00:24:15;7.53;;;3.30;;
78312;SDS011;67568;47.438;21.408;2023-05-10T00:26:45;8.70;;;3.03;;
78312;SDS011;67568;47.438;21.408;2023-05-10T00:29:11;7.83;;;3.57;;
78312;SDS011;67568;47.438;21.408;2023-05-10T00:31:38;6.72;;;2.90;;
78312;SDS011;67568;47.438;21.408;2023-05-10T00:34:05;7.07;;;3.15;;
78312;SDS011;67568;47.438;21.408;2023-05-10T00:36:32;10.25;;;3.08;;
78312;SDS011;67568;47.438;21.408;2023-05-10T00:38:58;7.38;;;3.08;;
78312;SDS011;67568;47.438;21.408;2023-05-10T00:41:25;8.37;;;3.33;;
78312;SDS011;67568;47.438;21.408;2023-05-10T00:43:52;8.15;;;3.30;;
78312;SDS011;67568;47.438;21.408;2023-05-10T00:46:19;9.18;;;3.38;;
78312;SDS011;67568;47.438;21.408;2023-05-10T00:48:46;7.40;;;3.30;;
78312;SDS011;67568;47.438;21.408;2023-05-10T00:51:13;9.40;;;3.67;;
78312;SDS011;67568;47.438;21.408;2023-05-10T00:53:40;6.87;;;3.37;;
78312;SDS011;67568;47.438;21.408;2023-05-10T00:56:07;6.65;;;2.88;;
78312;SDS011;67568;47.438;21.408;2023-05-10T00:58:34;7.78;;;3.63;;
78312;SDS011;67568;47.438;21.408;2023-05-10T01:01:01;7.97;;;3.25;;
78312;SDS011;67568;47.438;21.408;2023-05-10T01:03:32;7.53;;;3.70;;
78312;SDS011;67568;47.438;21.408;2023-05-10T01:06:00;6.87;;;3.47;;
78312;SDS011;67568;47.438;21.408;2023-05-10T01:08:27;8.57;;;3.70;;
78312;SDS011;67568;47.438;21.408;2023-05-10T01:10:54;7.35;;;3.97;;
78312;SDS011;67568;47.438;21.408;2023-05-10T01:16:02;9.38;;;3.50;;
78312;SDS011;67568;47.438;21.408;2023-05-10T01:18:29;8.63;;;3.30;;
78312;SDS011;67568;47.438;21.408;2023-05-10T01:21:14;7.60;;;3.42;;
78312;SDS011;67568;47.438;21.408;2023-05-10T01:23:53;8.07;;;3.60;;
78312;SDS011;67568;47.438;21.408;2023-05-10T01:29:52;7.05;;;3.25;;
78312;SDS011;67568;47.438;21.408;2023-05-10T01:43:38;7.60;;;3.30;;
78312;SDS011;67568;47.438;21.408;2023-05-10T01:46:38;6.50;;;3.20;;
78312;SDS011;67568;47.438;21.408;2023-05-10T01:49:15;7.00;;;3.40;;
78312;SDS011;67568;47.438;21.408;2023-05-10T01:51:50;7.10;;;3.40;;
78312;SDS011;67568;47.438;21.408;2023-05-10T01:54:20;6.70;;;2.90;;
78312;SDS011;67568;47.438;21.408;2023-05-10T01:57:05;7.15;;;3.22;;
78312;SDS011;67568;47.438;21.408;2023-05-10T01:59:36;6.27;;;3.20;;
78312;SDS011;67568;47.438;21.408;2023-05-10T02:02:05;7.28;;;3.42;;
78312;SDS011;67568;47.438;21.408;2023-05-10T02:04:36;7.57;;;3.00;;
78312;SDS011;67568;47.438;21.408;2023-05-10T02:07:08;9.27;;;3.53;;
78312;SDS011;67568;47.438;21.408;2023-05-10T02:09:36;7.90;;;3.30;;
78312;SDS011;67568;47.438;21.408;2023-05-10T02:12:04;6.07;;;3.10;;
78312;SDS011;67568;47.438;21.408;2023-05-10T02:14:34;6.63;;;3.22;;
78312;SDS011;67568;47.438;21.408;2023-05-10T02:17:04;7.90;;;3.25;;
78312;SDS011;67568;47.438;21.408;2023-05-10T02:19:37;10.38;;;3.25;;
78312;SDS011;67568;47.438;21.408;2023-05-10T02:22:07;6.45;;;2.85;;
78312;SDS011;67568;47.438;21.408;2023-05-10T02:24:34;7.63;;;3.07;;
78312;SDS011;67568;47.438;21.408;2023-05-10T02:27:03;6.85;;;3.00;;
78312;SDS011;67568;47.438;21.408;2023-05-10T02:29:31;6.70;;;3.20;;
78312;SDS011;67568;47.438;21.408;2023-05-10T02:31:59;8.50;;;3.30;;
78312;SDS011;67568;47.438;21.408;2023-05-10T02:34:30;7.35;;;3.22;;
78312;SDS011;67568;47.438;21.408;2023-05-10T02:36:58;7.90;;;3.30;;
78312;SDS011;67568;47.438;21.408;2023-05-10T02:39:27;9.00;;;3.28;;
78312;SDS011;67568;47.438;21.408;2023-05-10T02:41:55;9.40;;;3.10;;
78312;SDS011;67568;47.438;21.408;2023-05-10T02:44:23;7.88;;;3.30;;
78312;SDS011;67568;47.438;21.408;2023-05-10T02:46:54;6.40;;;3.22;;
78312;SDS011;67568;47.438;21.408;2023-05-10T02:49:21;6.57;;;3.30;;
78312;SDS011;67568;47.438;21.408;2023-05-10T02:51:49;6.55;;;3.20;;
78312;SDS011;67568;47.438;21.408;2023-05-10T02:54:24;7.43;;;3.72;;
78312;SDS011;67568;47.438;21.408;2023-05-10T02:56:58;6.55;;;3.10;;
78312;SDS011;67568;47.438;21.408;2023-05-10T02:59:31;6.43;;;2.97;;
78312;SDS011;67568;47.438;21.408;2023-05-10T03:02:01;7.87;;;3.20;;
78312;SDS011;67568;47.438;21.408;2023-05-10T03:04:28;6.75;;;2.92;;
78312;SDS011;67568;47.438;21.408;2023-05-10T03:06:55;7.80;;;2.72;;
78312;SDS011;67568;47.438;21.408;2023-05-10T03:09:22;7.22;;;3.28;;
78312;SDS011;67568;47.438;21.408;2023-05-10T03:11:52;6.07;;;3.10;;
78312;SDS011;67568;47.438;21.408;2023-05-10T03:20:03;6.63;;;2.88;;
78312;SDS011;67568;47.438;21.408;2023-05-10T03:22:49;9.70;;;3.38;;
78312;SDS011;67568;47.438;21.408;2023-05-10T03:25:23;8.13;;;3.10;;
78312;SDS011;67568;47.438;21.408;2023-05-10T03:28:00;9.10;;;3.37;;
78312;SDS011;67568;47.438;21.408;2023-05-10T03:30:57;7.72;;;3.03;;
78312;SDS011;67568;47.438;21.408;2023-05-10T03:33:28;8.63;;;3.10;;
78312;SDS011;67568;47.438;21.408;2023-05-10T03:35:55;7.00;;;3.40;;
78312;SDS011;67568;47.438;21.408;2023-05-10T03:38:21;7.43;;;3.50;;
78312;SDS011;67568;47.438;21.408;2023-05-10T03:40:48;8.87;;;3.33;;
78312;SDS011;67568;47.438;21.408;2023-05-10T03:43:15;13.70;;;3.65;;
78312;SDS011;67568;47.438;21.408;2023-05-10T03:45:41;11.02;;;3.90;;
78312;SDS011;67568;47.438;21.408;2023-05-10T03:48:08;9.32;;;3.70;;
78312;SDS011;67568;47.438;21.408;2023-05-10T03:50:35;12.07;;;3.97;;
78312;SDS011;67568;47.438;21.408;2023-05-10T03:53:01;9.47;;;3.30;;
78312;SDS011;67568;47.438;21.408;2023-05-10T03:55:28;9.05;;;3.90;;
78312;SDS011;67568;47.438;21.408;2023-05-10T03:57:57;9.50;;;3.67;;
78312;SDS011;67568;47.438;21.408;2023-05-10T04:00:24;8.82;;;3.55;;
78312;SDS011;67568;47.438;21.408;2023-05-10T04:02:52;9.05;;;4.07;;
78312;SDS011;67568;47.438;21.408;2023-05-10T04:05:19;9.30;;;3.50;;
78312;SDS011;67568;47.438;21.408;2023-05-10T04:07:46;7.88;;;3.60;;
78312;SDS011;67568;47.438;21.408;2023-05-10T04:10:13;8.50;;;3.78;;
78312;SDS011;67568;47.438;21.408;2023-05-10T04:12:43;8.93;;;4.05;;
78312;SDS011;67568;47.438;21.408;2023-05-10T04:15:10;8.75;;;3.78;;
78312;SDS011;67568;47.438;21.408;2023-05-10T04:17:37;7.37;;;3.50;;
78312;SDS011;67568;47.438;21.408;2023-05-10T04:20:03;9.90;;;3.70;;
78312;SDS011;67568;47.438;21.408;2023-05-10T04:22:32;8.30;;;4.15;;
78312;SDS011;67568;47.438;21.408;2023-05-10T04:24:59;10.10;;;4.60;;
78312;SDS011;67568;47.438;21.408;2023-05-10T04:27:26;9.75;;;4.43;;
78312;SDS011;67568;47.438;21.408;2023-05-10T04:29:53;11.70;;;4.90;;
78312;SDS011;67568;47.438;21.408;2023-05-10T04:32:20;11.10;;;5.03;;
78312;SDS011;67568;47.438;21.408;2023-05-10T04:34:47;10.82;;;4.75;;
78312;SDS011;67568;47.438;21.408;2023-05-10T04:37:14;9.50;;;4.63;;
78312;SDS011;67568;47.438;21.408;2023-05-10T04:39:40;10.02;;;4.20;;
78312;SDS011;67568;47.438;21.408;2023-05-10T04:42:07;8.80;;;4.30;;
78312;SDS011;67568;47.438;21.408;2023-05-10T04:44:36;13.35;;;4.25;;
78312;SDS011;67568;47.438;21.408;2023-05-10T04:47:03;13.27;;;4.25;;
78312;SDS011;67568;47.438;21.408;2023-05-10T04:49:30;7.45;;;3.42;;
78312;SDS011;67568;47.438;21.408;2023-05-10T04:51:57;7.22;;;3.58;;
78312;SDS011;67568;47.438;21.408;2023-05-10T04:54:24;7.57;;;3.97;;
78312;SDS011;67568;47.438;21.408;2023-05-10T04:56:53;14.23;;;3.90;;
78312;SDS011;67568;47.438;21.408;2023-05-10T04:59:20;9.00;;;3.60;;
78312;SDS011;67568;47.438;21.408;2023-05-10T05:01:47;13.80;;;4.15;;
78312;SDS011;67568;47.438;21.408;2023-05-10T05:04:14;7.45;;;3.50;;
78312;SDS011;67568;47.438;21.408;2023-05-10T05:06:40;9.63;;;4.03;;
78312;SDS011;67568;47.438;21.408;2023-05-10T05:09:07;10.77;;;4.22;;
78312;SDS011;67568;47.438;21.408;2023-05-10T05:11:34;9.65;;;4.10;;
78312;SDS011;67568;47.438;21.408;2023-05-10T05:14:01;8.20;;;4.00;;
78312;SDS011;67568;47.438;21.408;2023-05-10T05:16:29;9.50;;;3.97;;
78312;SDS011;67568;47.438;21.408;2023-05-10T05:18:57;8.27;;;3.87;;
78312;SDS011;67568;47.438;21.408;2023-05-10T05:21:23;7.40;;;3.60;;
78312;SDS011;67568;47.438;21.408;2023-05-10T05:23:50;10.73;;;3.65;;
78312;SDS011;67568;47.438;21.408;2023-05-10T05:26:17;9.27;;;4.10;;
78312;SDS011;67568;47.438;21.408;2023-05-10T05:28:43;7.85;;;3.70;;
78312;SDS011;67568;47.438;21.408;2023-05-10T05:31:10;8.50;;;3.67;;
78312;SDS011;67568;47.438;21.408;2023-05-10T05:33:39;8.23;;;3.20;;
78312;SDS011;67568;47.438;21.408;2023-05-10T05:36:06;8.35;;;3.22;;
78312;SDS011;67568;47.438;21.408;2023-05-10T05:38:33;6.80;;;3.20;;
78312;SDS011;67568;47.438;21.408;2023-05-10T05:41:03;7.72;;;3.15;;
78312;SDS011;67568;47.438;21.408;2023-05-10T05:43:29;8.00;;;2.80;;
78312;SDS011;67568;47.438;21.408;2023-05-10T05:45:59;8.13;;;3.08;;
78312;SDS011;67568;47.438;21.408;2023-05-10T05:48:26;8.52;;;3.42;;
78312;SDS011;67568;47.438;21.408;2023-05-10T05:50:56;11.68;;;3.65;;
78312;SDS011;67568;47.438;21.408;2023-05-10T05:53:23;11.63;;;3.10;;
78312;SDS011;67568;47.438;21.408;2023-05-10T05:55:51;7.37;;;2.70;;
78312;SDS011;67568;47.438;21.408;2023-05-10T05:58:22;6.75;;;3.08;;
78312;SDS011;67568;47.438;21.408;2023-05-10T06:00:49;7.30;;;2.63;;
78312;SDS011;67568;47.438;21.408;2023-05-10T06:03:16;6.35;;;2.90;;
78312;SDS011;67568;47.438;21.408;2023-05-10T06:05:43;7.45;;;3.20;;
78312;SDS011;67568;47.438;21.408;2023-05-10T06:08:10;6.43;;;3.00;;
78312;SDS011;67568;47.438;21.408;2023-05-10T06:10:37;8.82;;;2.92;;
78312;SDS011;67568;47.438;21.408;2023-05-10T06:13:04;6.63;;;2.90;;
78312;SDS011;67568;47.438;21.408;2023-05-10T06:15:31;7.60;;;2.97;;
78312;SDS011;67568;47.438;21.408;2023-05-10T06:17:58;7.63;;;3.42;;
78312;SDS011;67568;47.438;21.408;2023-05-10T06:20:25;7.30;;;3.07;;
78312;SDS011;67568;47.438;21.408;2023-05-10T06:22:52;6.60;;;2.95;;
78312;SDS011;67568;47.438;21.408;2023-05-10T06:25:18;7.15;;;2.80;;
78312;SDS011;67568;47.438;21.408;2023-05-10T06:27:45;8.45;;;3.58;;
78312;SDS011;67568;47.438;21.408;2023-05-10T06:30:18;6.18;;;2.80;;
78312;SDS011;67568;47.438;21.408;2023-05-10T06:32:44;5.57;;;2.57;;
78312;SDS011;67568;47.438;21.408;2023-05-10T06:35:13;5.90;;;2.92;;
78312;SDS011;67568;47.438;21.408;2023-05-10T06:37:40;8.63;;;3.10;;
78312;SDS011;67568;47.438;21.408;2023-05-10T06:40:16;7.13;;;2.83;;
78312;SDS011;67568;47.438;21.408;2023-05-10T06:42:48;7.13;;;2.90;;
78312;SDS011;67568;47.438;21.408;2023-05-10T06:45:16;6.40;;;2.70;;
78312;SDS011;67568;47.438;21.408;2023-05-10T06:47:43;8.35;;;3.13;;
78312;SDS011;67568;47.438;21.408;2023-05-10T06:50:10;11.13;;;3.63;;
78312;SDS011;67568;47.438;21.408;2023-05-10T06:52:37;6.18;;;2.95;;
78312;SDS011;67568;47.438;21.408;2023-05-10T06:55:07;7.72;;;3.13;;
78312;SDS011;67568;47.438;21.408;2023-05-10T06:57:34;8.13;;;3.10;;
78312;SDS011;67568;47.438;21.408;2023-05-10T07:00:02;7.85;;;3.05;;
78312;SDS011;67568;47.438;21.408;2023-05-10T07:02:29;9.20;;;3.00;;
78312;SDS011;67568;47.438;21.408;2023-05-10T07:04:56;6.80;;;2.88;;
78312;SDS011;67568;47.438;21.408;2023-05-10T07:07:27;7.80;;;2.83;;
78312;SDS011;67568;47.438;21.408;2023-05-10T07:09:54;8.10;;;3.17;;
78312;SDS011;67568;47.438;21.408;2023-05-10T07:12:21;6.57;;;3.10;;
78312;SDS011;67568;47.438;21.408;2023-05-10T07:14:50;8.80;;;3.05;;
78312;SDS011;67568;47.438;21.408;2023-05-10T07:17:17;7.47;;;2.75;;
78312;SDS011;67568;47.438;21.408;2023-05-10T07:19:47;5.28;;;2.60;;
78312;SDS011;67568;47.438;21.408;2023-05-10T07:22:17;8.57;;;3.17;;
78312;SDS011;67568;47.438;21.408;2023-05-10T07:24:47;8.32;;;3.17;;
78312;SDS011;67568;47.438;21.408;2023-05-10T07:27:14;10.38;;;3.85;;
78312;SDS011;67568;47.438;21.408;2023-05-10T07:29:41;7.43;;;3.10;;
78312;SDS011;67568;47.438;21.408;2023-05-10T07:32:08;8.40;;;3.10;;
78312;SDS011;67568;47.438;21.408;2023-05-10T07:34:34;7.77;;;3.63;;
78312;SDS011;67568;47.438;21.408;2023-05-10T07:37:01;9.38;;;3.03;;
78312;SDS011;67568;47.438;21.408;2023-05-10T07:39:28;7.30;;;3.05;;
78312;SDS011;67568;47.438;21.408;2023-05-10T07:41:55;7.88;;;2.88;;
78312;SDS011;67568;47.438;21.408;2023-05-10T07:44:22;6.85;;;3.00;;
78312;SDS011;67568;47.438;21.408;2023-05-10T07:46:49;8.17;;;3.10;;
78312;SDS011;67568;47.438;21.408;2023-05-10T07:49:15;8.38;;;3.45;;
78312;SDS011;67568;47.438;21.408;2023-05-10T07:51:42;6.78;;;2.75;;
78312;SDS011;67568;47.438;21.408;2023-05-10T07:54:09;6.00;;;2.80;;
78312;SDS011;67568;47.438;21.408;2023-05-10T07:56:36;7.35;;;2.40;;
78312;SDS011;67568;47.438;21.408;2023-05-10T07:59:03;7.43;;;2.30;;
78312;SDS011;67568;47.438;21.408;2023-05-10T08:01:30;8.48;;;2.20;;
78312;SDS011;67568;47.438;21.408;2023-05-10T08:03:58;4.30;;;1.90;;
78312;SDS011;67568;47.438;21.408;2023-05-10T08:06:25;14.70;;;5.07;;
78312;SDS011;67568;47.438;21.408;2023-05-10T08:08:52;7.88;;;2.53;;
78312;SDS011;67568;47.438;21.408;2023-05-10T08:11:19;7.73;;;2.23;;
78312;SDS011;67568;47.438;21.408;2023-05-10T08:13:47;4.95;;;2.30;;
78312;SDS011;67568;47.438;21.408;2023-05-10T08:16:14;12.40;;;3.45;;
78312;SDS011;67568;47.438;21.408;2023-05-10T08:18:43;6.85;;;2.40;;
78312;SDS011;67568;47.438;21.408;2023-05-10T08:21:10;5.88;;;2.88;;
78312;SDS011;67568;47.438;21.408;2023-05-10T08:23:37;4.63;;;2.00;;
78312;SDS011;67568;47.438;21.408;2023-05-10T08:26:04;4.40;;;1.80;;
78312;SDS011;67568;47.438;21.408;2023-05-10T08:28:30;4.32;;;1.80;;
78312;SDS011;67568;47.438;21.408;2023-05-10T08:30:57;6.05;;;2.00;;
78312;SDS011;67568;47.438;21.408;2023-05-10T08:33:24;4.30;;;1.80;;
78312;SDS011;67568;47.438;21.408;2023-05-10T08:35:51;5.87;;;1.87;;
78312;SDS011;67568;47.438;21.408;2023-05-10T08:38:17;4.65;;;1.70;;
78312;SDS011;67568;47.438;21.408;2023-05-10T08:40:44;6.07;;;1.83;;
78312;SDS011;67568;47.438;21.408;2023-05-10T08:43:12;5.05;;;2.05;;
78312;SDS011;67568;47.438;21.408;2023-05-10T08:45:40;5.15;;;1.70;;
78312;SDS011;67568;47.438;21.408;2023-05-10T08:48:09;6.93;;;2.20;;
78312;SDS011;67568;47.438;21.408;2023-05-10T08:50:37;4.93;;;1.70;;
78312;SDS011;67568;47.438;21.408;2023-05-10T08:53:14;3.65;;;1.65;;
78312;SDS011;67568;47.438;21.408;2023-05-10T08:55:42;6.35;;;2.75;;
78312;SDS011;67568;47.438;21.408;2023-05-10T08:58:09;5.65;;;2.20;;
78312;SDS011;67568;47.438;21.408;2023-05-10T09:00:36;7.03;;;2.30;;
78312;SDS011;67568;47.438;21.408;2023-05-10T09:03:03;5.95;;;2.53;;
78312;SDS011;67568;47.438;21.408;2023-05-10T09:05:31;4.32;;;2.10;;
78312;SDS011;67568;47.438;21.408;2023-05-10T09:07:58;5.40;;;2.10;;
78312;SDS011;67568;47.438;21.408;2023-05-10T09:10:25;6.15;;;2.47;;
78312;SDS011;67568;47.438;21.408;2023-05-10T09:12:53;9.00;;;2.83;;
78312;SDS011;67568;47.438;21.408;2023-05-10T09:15:24;7.18;;;2.15;;
78312;SDS011;67568;47.438;21.408;2023-05-10T09:17:51;5.20;;;2.10;;
78312;SDS011;67568;47.438;21.408;2023-05-10T09:20:18;5.10;;;1.95;;
78312;SDS011;67568;47.438;21.408;2023-05-10T09:22:47;7.13;;;1.90;;
78312;SDS011;67568;47.438;21.408;2023-05-10T09:25:14;4.60;;;2.10;;
78312;SDS011;67568;47.438;21.408;2023-05-10T09:27:46;5.95;;;2.15;;
78312;SDS011;67568;47.438;21.408;2023-05-10T09:30:17;7.85;;;2.40;;
78312;SDS011;67568;47.438;21.408;2023-05-10T09:32:50;6.85;;;2.25;;
78312;SDS011;67568;47.438;21.408;2023-05-10T09:35:18;5.63;;;1.90;;
78312;SDS011;67568;47.438;21.408;2023-05-10T09:37:47;4.77;;;2.30;;
78312;SDS011;67568;47.438;21.408;2023-05-10T09:40:18;6.80;;;1.92;;
78312;SDS011;67568;47.438;21.408;2023-05-10T09:45:28;6.18;;;2.40;;
78312;SDS011;67568;47.438;21.408;2023-05-10T09:47:57;4.65;;;2.10;;
78312;SDS011;67568;47.438;21.408;2023-05-10T09:50:25;6.20;;;2.30;;
78312;SDS011;67568;47.438;21.408;2023-05-10T09:52:57;6.97;;;2.00;;
78312;SDS011;67568;47.438;21.408;2023-05-10T09:55:43;8.05;;;3.17;;
78312;SDS011;67568;47.438;21.408;2023-05-10T09:58:11;5.43;;;2.13;;
78312;SDS011;67568;47.438;21.408;2023-05-10T10:00:44;6.53;;;2.10;;
78312;SDS011;67568;47.438;21.408;2023-05-10T10:03:18;3.90;;;1.70;;
78312;SDS011;67568;47.438;21.408;2023-05-10T10:05:47;4.72;;;1.95;;
78312;SDS011;67568;47.438;21.408;2023-05-10T10:08:15;6.72;;;1.73;;
78312;SDS011;67568;47.438;21.408;2023-05-10T10:10:42;5.60;;;2.00;;
78312;SDS011;67568;47.438;21.408;2023-05-10T10:13:09;4.38;;;1.92;;
78312;SDS011;67568;47.438;21.408;2023-05-10T10:15:36;6.87;;;1.90;;
78312;SDS011;67568;47.438;21.408;2023-05-10T10:18:03;6.53;;;1.77;;
78312;SDS011;67568;47.438;21.408;2023-05-10T10:20:31;6.07;;;1.70;;
78312;SDS011;67568;47.438;21.408;2023-05-10T10:22:59;5.93;;;1.80;;
78312;SDS011;67568;47.438;21.408;2023-05-10T10:25:26;4.28;;;1.30;;
78312;SDS011;67568;47.438;21.408;2023-05-10T10:30:23;4.30;;;1.58;;
78312;SDS011;67568;47.438;21.408;2023-05-10T10:35:54;5.95;;;1.88;;
78312;SDS011;67568;47.438;21.408;2023-05-10T10:38:24;4.82;;;1.70;;
78312;SDS011;67568;47.438;21.408;2023-05-10T10:41:38;4.60;;;1.90;;
78312;SDS011;67568;47.438;21.408;2023-05-10T10:47:20;4.05;;;1.65;;
78312;SDS011;67568;47.438;21.408;2023-05-10T10:49:49;3.75;;;1.40;;
78312;SDS011;67568;47.438;21.408;2023-05-10T10:55:24;3.60;;;1.50;;
78312;SDS011;67568;47.438;21.408;2023-05-10T11:05:33;3.17;;;1.30;;
78312;SDS011;67568;47.438;21.408;2023-05-10T11:08:06;7.10;;;1.60;;
78312;SDS011;67568;47.438;21.408;2023-05-10T11:10:35;7.30;;;1.67;;
78312;SDS011;67568;47.438;21.408;2023-05-10T11:13:03;3.35;;;1.40;;
78312;SDS011;67568;47.438;21.408;2023-05-10T11:15:39;3.38;;;1.40;;
78312;SDS011;67568;47.438;21.408;2023-05-10T11:21:00;5.00;;;1.60;;
78312;SDS011;67568;47.438;21.408;2023-05-10T11:26:09;3.88;;;1.50;;
78312;SDS011;67568;47.438;21.408;2023-05-10T11:28:41;4.07;;;1.45;;
78312;SDS011;67568;47.438;21.408;2023-05-10T11:31:15;3.30;;;1.27;;
78312;SDS011;67568;47.438;21.408;2023-05-10T11:33:46;4.17;;;1.60;;
78312;SDS011;67568;47.438;21.408;2023-05-10T11:36:15;4.32;;;1.90;;
78312;SDS011;67568;47.438;21.408;2023-05-10T11:38:52;6.68;;;1.60;;
78312;SDS011;67568;47.438;21.408;2023-05-10T11:41:20;3.92;;;1.45;;
78312;SDS011;67568;47.438;21.408;2023-05-10T11:43:48;6.47;;;1.73;;
78312;SDS011;67568;47.438;21.408;2023-05-10T11:46:17;3.17;;;1.47;;
78312;SDS011;67568;47.438;21.408;2023-05-10T11:48:46;3.95;;;1.60;;
78312;SDS011;67568;47.438;21.408;2023-05-10T11:51:15;3.92;;;1.42;;
78312;SDS011;67568;47.438;21.408;2023-05-10T11:53:48;3.83;;;1.40;;
78312;SDS011;67568;47.438;21.408;2023-05-10T11:56:16;3.40;;;1.40;;
78312;SDS011;67568;47.438;21.408;2023-05-10T11:58:43;5.30;;;1.63;;
78312;SDS011;67568;47.438;21.408;2023-05-10T12:01:09;3.22;;;1.35;;
78312;SDS011;67568;47.438;21.408;2023-05-10T12:03:37;4.32;;;1.30;;
78312;SDS011;67568;47.438;21.408;2023-05-10T12:06:04;4.30;;;1.50;;
78312;SDS011;67568;47.438;21.408;2023-05-10T12:08:33;3.67;;;1.40;;
78312;SDS011;67568;47.438;21.408;2023-05-10T12:11:07;4.20;;;1.40;;
78312;SDS011;67568;47.438;21.408;2023-05-10T12:13:38;4.30;;;1.30;;
78312;SDS011;67568;47.438;21.408;2023-05-10T12:18:53;6.15;;;1.50;;
78312;SDS011;67568;47.438;21.408;2023-05-10T12:21:22;4.70;;;1.60;;
78312;SDS011;67568;47.438;21.408;2023-05-10T12:23:52;4.37;;;1.80;;
78312;SDS011;67568;47.438;21.408;2023-05-10T12:26:24;4.53;;;1.40;;
78312;SDS011;67568;47.438;21.408;2023-05-10T12:28:52;4.35;;;1.60;;
78312;SDS011;67568;47.438;21.408;2023-05-10T12:31:19;3.63;;;1.40;;
78312;SDS011;67568;47.438;21.408;2023-05-10T12:33:46;3.28;;;1.40;;
78312;SDS011;67568;47.438;21.408;2023-05-10T12:36:13;6.00;;;1.60;;
78312;SDS011;67568;47.438;21.408;2023-05-10T12:38:42;4.45;;;1.83;;
78312;SDS011;67568;47.438;21.408;2023-05-10T12:41:10;3.90;;;1.58;;
78312;SDS011;67568;47.438;21.408;2023-05-10T12:43:39;4.30;;;1.60;;
78312;SDS011;67568;47.438;21.408;2023-05-10T12:48:36;3.97;;;1.60;;
78312;SDS011;67568;47.438;21.408;2023-05-10T12:51:04;4.60;;;1.50;;
78312;SDS011;67568;47.438;21.408;2023-05-10T12:53:31;3.97;;;1.60;;
78312;SDS011;67568;47.438;21.408;2023-05-10T12:55:58;5.45;;;1.73;;
78312;SDS011;67568;47.438;21.408;2023-05-10T12:58:25;4.13;;;1.50;;
78312;SDS011;67568;47.438;21.408;2023-05-10T13:01:01;7.17;;;1.60;;
78312;SDS011;67568;47.438;21.408;2023-05-10T13:03:28;5.32;;;1.40;;
78312;SDS011;67568;47.438;21.408;2023-05-10T13:05:55;4.38;;;1.63;;
78312;SDS011;67568;47.438;21.408;2023-05-10T13:08:22;4.00;;;1.70;;
78312;SDS011;67568;47.438;21.408;2023-05-10T13:10:48;4.60;;;1.48;;
78312;SDS011;67568;47.438;21.408;2023-05-10T13:13:15;4.57;;;1.50;;
78312;SDS011;67568;47.438;21.408;2023-05-10T13:15:42;5.63;;;1.50;;
78312;SDS011;67568;47.438;21.408;2023-05-10T13:18:09;5.13;;;1.70;;
78312;SDS011;67568;47.438;21.408;2023-05-10T13:20:35;3.08;;;1.40;;
78312;SDS011;67568;47.438;21.408;2023-05-10T13:23:02;4.38;;;1.30;;
78312;SDS011;67568;47.438;21.408;2023-05-10T13:25:29;3.60;;;1.57;;
78312;SDS011;67568;47.438;21.408;2023-05-10T13:27:56;3.65;;;1.77;;
78312;SDS011;67568;47.438;21.408;2023-05-10T13:30:22;6.47;;;1.50;;
78312;SDS011;67568;47.438;21.408;2023-05-10T13:32:49;7.93;;;1.77;;
78312;SDS011;67568;47.438;21.408;2023-05-10T13:35:16;4.70;;;1.60;;
78312;SDS011;67568;47.438;21.408;2023-05-10T13:37:42;3.40;;;1.60;;
78312;SDS011;67568;47.438;21.408;2023-05-10T13:40:11;4.07;;;1.20;;
78312;SDS011;67568;47.438;21.408;2023-05-10T13:42:38;6.15;;;1.42;;
78312;SDS011;67568;47.438;21.408;2023-05-10T13:45:05;3.72;;;1.27;;
78312;SDS011;67568;47.438;21.408;2023-05-10T13:47:32;9.68;;;1.60;;
78312;SDS011;67568;47.438;21.408;2023-05-10T13:50:01;3.43;;;1.33;;
78312;SDS011;67568;47.438;21.408;2023-05-10T13:52:30;3.92;;;1.38;;
78312;SDS011;67568;47.438;21.408;2023-05-10T13:54:58;5.22;;;1.55;;
78312;SDS011;67568;47.438;21.408;2023-05-10T13:57:25;5.55;;;1.95;;
78312;SDS011;67568;47.438;21.408;2023-05-10T13:59:54;4.32;;;1.65;;
78312;SDS011;67568;47.438;21.408;2023-05-10T14:02:23;4.50;;;1.60;;
78312;SDS011;67568;47.438;21.408;2023-05-10T14:04:50;5.25;;;1.85;;
78312;SDS011;67568;47.438;21.408;2023-05-10T14:07:17;3.13;;;1.40;;
78312;SDS011;67568;47.438;21.408;2023-05-10T14:09:43;10.45;;;1.83;;
78312;SDS011;67568;47.438;21.408;2023-05-10T14:12:10;3.72;;;1.40;;
78312;SDS011;67568;47.438;21.408;2023-05-10T14:14:38;3.40;;;1.23;;
78312;SDS011;67568;47.438;21.408;2023-05-10T14:17:06;4.22;;;1.42;;
78312;SDS011;67568;47.438;21.408;2023-05-10T14:19:37;3.53;;;1.40;;
78312;SDS011;67568;47.438;21.408;2023-05-10T14:22:03;4.63;;;1.48;;
78312;SDS011;67568;47.438;21.408;2023-05-10T14:24:30;4.72;;;1.42;;
78312;SDS011;67568;47.438;21.408;2023-05-10T14:26:57;5.93;;;1.40;;
78312;SDS011;67568;47.438;21.408;2023-05-10T14:29:23;4.30;;;1.40;;
78312;SDS011;67568;47.438;21.408;2023-05-10T14:31:50;2.30;;;1.15;;
78312;SDS011;67568;47.438;21.408;2023-05-10T14:34:17;3.97;;;1.40;;
78312;SDS011;67568;47.438;21.408;2023-05-10T14:36:44;4.47;;;1.30;;
78312;SDS011;67568;47.438;21.408;2023-05-10T14:39:10;3.63;;;1.40;;
78312;SDS011;67568;47.438;21.408;2023-05-10T14:41:37;4.55;;;1.25;;
78312;SDS011;67568;47.438;21.408;2023-05-10T14:44:03;4.95;;;1.30;;
78312;SDS011;67568;47.438;21.408;2023-05-10T14:46:30;3.92;;;1.50;;
78312;SDS011;67568;47.438;21.408;2023-05-10T14:48:57;3.47;;;1.30;;
78312;SDS011;67568;47.438;21.408;2023-05-10T14:51:24;4.83;;;1.20;;
78312;SDS011;67568;47.438;21.408;2023-05-10T14:53:51;6.45;;;1.77;;
78312;SDS011;67568;47.438;21.408;2023-05-10T14:56:17;4.80;;;1.40;;
78312;SDS011;67568;47.438;21.408;2023-05-10T14:58:44;3.17;;;1.10;;
78312;SDS011;67568;47.438;21.408;2023-05-10T15:01:11;4.32;;;1.33;;
78312;SDS011;67568;47.438;21.408;2023-05-10T15:03:38;5.23;;;1.20;;
78312;SDS011;67568;47.438;21.408;2023-05-10T15:06:05;3.10;;;1.20;;
78312;SDS011;67568;47.438;21.408;2023-05-10T15:08:32;8.70;;;1.38;;
78312;SDS011;67568;47.438;21.408;2023-05-10T15:10:58;3.92;;;1.30;;
78312;SDS011;67568;47.438;21.408;2023-05-10T15:13:25;4.72;;;1.33;;
78312;SDS011;67568;47.438;21.408;2023-05-10T15:15:52;3.67;;;1.13;;
78312;SDS011;67568;47.438;21.408;2023-05-10T15:18:19;3.08;;;1.20;;
78312;SDS011;67568;47.438;21.408;2023-05-10T15:20:45;4.03;;;1.20;;
78312;SDS011;67568;47.438;21.408;2023-05-10T15:23:12;2.90;;;1.20;;
78312;SDS011;67568;47.438;21.408;2023-05-10T15:25:39;3.38;;;1.30;;
78312;SDS011;67568;47.438;21.408;2023-05-10T15:28:05;4.37;;;1.30;;
78312;SDS011;67568;47.438;21.408;2023-05-10T15:30:32;4.10;;;1.60;;
78312;SDS011;67568;47.438;21.408;2023-05-10T15:32:59;2.72;;;1.20;;
78312;SDS011;67568;47.438;21.408;2023-05-10T15:35:26;2.60;;;1.02;;
78312;SDS011;67568;47.438;21.408;2023-05-10T15:37:53;2.83;;;1.10;;